Terminal Aerodrome Forecast
Issued by NWS

Home | Current Version | Previous Version | Text Only | Print | Product List | Glossary On
Versions: 1 2 3 4 5 6 7 8 9 10 11 12 13
000
FTUS44 KBMX 161100 RRA
TAFTCL
TAF
KTCL 161139Z 1612/1712 00000KT 6SM BR BKN150
      TEMPO 1612/1614 4SM BR
     FM161400 36004KT P6SM SCT040 BKN150
     FM161900 34007KT P6SM SCT250
     FM170200 VRB02KT P6SM FEW250=

USA.gov is the U.S. government's official web portal to all federal, state and local government web resources and services.